sensor_id;sensor_type;location;lat;lon;timestamp;temperature;humidity
69009;SHT31;56065;52.472;13.380;2023-05-16T00:00:02;15.56;76.81
69009;SHT31;56065;52.472;13.380;2023-05-16T00:02:31;15.57;76.74
69009;SHT31;56065;52.472;13.380;2023-05-16T00:04:56;15.59;76.69
69009;SHT31;56065;52.472;13.380;2023-05-16T00:07:22;15.63;76.61
69009;SHT31;56065;52.472;13.380;2023-05-16T00:09:47;15.65;76.60
69009;SHT31;56065;52.472;13.380;2023-05-16T00:12:12;15.67;76.64
69009;SHT31;56065;52.472;13.380;2023-05-16T00:14:38;15.70;76.88
69009;SHT31;56065;52.472;13.380;2023-05-16T00:17:03;15.73;76.91
69009;SHT31;56065;52.472;13.380;2023-05-16T00:19:35;15.73;77.02
69009;SHT31;56065;52.472;13.380;2023-05-16T00:22:01;15.76;76.85
69009;SHT31;56065;52.472;13.380;2023-05-16T00:24:26;15.73;77.13
69009;SHT31;56065;52.472;13.380;2023-05-16T00:26:51;15.73;77.17
69009;SHT31;56065;52.472;13.380;2023-05-16T00:29:17;15.69;77.29
69009;SHT31;56065;52.472;13.380;2023-05-16T00:31:42;15.67;77.38
69009;SHT31;56065;52.472;13.380;2023-05-16T00:34:07;15.62;77.62
69009;SHT31;56065;52.472;13.380;2023-05-16T00:36:33;15.60;77.72
69009;SHT31;56065;52.472;13.380;2023-05-16T00:39:00;15.53;78.18
69009;SHT31;56065;52.472;13.380;2023-05-16T00:41:25;15.53;78.35
69009;SHT31;56065;52.472;13.380;2023-05-16T00:43:50;15.49;78.57
69009;SHT31;56065;52.472;13.380;2023-05-16T00:46:16;15.47;78.69
69009;SHT31;56065;52.472;13.380;2023-05-16T00:48:42;15.38;79.13
69009;SHT31;56065;52.472;13.380;2023-05-16T00:51:07;15.36;79.38
69009;SHT31;56065;52.472;13.380;2023-05-16T00:53:34;15.32;79.41
69009;SHT31;56065;52.472;13.380;2023-05-16T00:56:00;15.31;79.76
69009;SHT31;56065;52.472;13.380;2023-05-16T00:58:27;15.29;79.90
69009;SHT31;56065;52.472;13.380;2023-05-16T01:00:54;15.26;80.17
69009;SHT31;56065;52.472;13.380;2023-05-16T01:03:21;15.21;80.54
69009;SHT31;56065;52.472;13.380;2023-05-16T01:05:46;15.16;80.96
69009;SHT31;56065;52.472;13.380;2023-05-16T01:08:13;15.18;80.64
69009;SHT31;56065;52.472;13.380;2023-05-16T01:10:45;15.06;81.29
69009;SHT31;56065;52.472;13.380;2023-05-16T01:13:23;15.05;81.35
69009;SHT31;56065;52.472;13.380;2023-05-16T01:22:15;14.85;81.40
69009;SHT31;56065;52.472;13.380;2023-05-16T01:27:28;14.64;81.84
69009;SHT31;56065;52.472;13.380;2023-05-16T01:29:57;14.54;81.82
69009;SHT31;56065;52.472;13.380;2023-05-16T01:32:22;14.63;81.58
69009;SHT31;56065;52.472;13.380;2023-05-16T01:34:49;14.51;81.56
69009;SHT31;56065;52.472;13.380;2023-05-16T01:37:24;14.43;81.77
69009;SHT31;56065;52.472;13.380;2023-05-16T01:40:03;14.36;82.05
69009;SHT31;56065;52.472;13.380;2023-05-16T01:42:36;14.37;81.98
69009;SHT31;56065;52.472;13.380;2023-05-16T01:45:25;14.30;82.34
69009;SHT31;56065;52.472;13.380;2023-05-16T01:47:58;14.30;82.13
69009;SHT31;56065;52.472;13.380;2023-05-16T01:50:27;14.27;82.13
69009;SHT31;56065;52.472;13.380;2023-05-16T01:53:02;14.29;81.87
69009;SHT31;56065;52.472;13.380;2023-05-16T01:55:44;14.22;81.38
69009;SHT31;56065;52.472;13.380;2023-05-16T01:58:11;14.19;81.49
69009;SHT31;56065;52.472;13.380;2023-05-16T02:00:39;14.15;81.51
69009;SHT31;56065;52.472;13.380;2023-05-16T02:03:04;14.12;81.50
69009;SHT31;56065;52.472;13.380;2023-05-16T02:05:30;14.05;81.38
69009;SHT31;56065;52.472;13.380;2023-05-16T02:07:56;14.09;81.00
69009;SHT31;56065;52.472;13.380;2023-05-16T02:10:21;13.98;80.85
69009;SHT31;56065;52.472;13.380;2023-05-16T02:12:49;14.05;80.70
69009;SHT31;56065;52.472;13.380;2023-05-16T02:15:14;14.03;80.65
69009;SHT31;56065;52.472;13.380;2023-05-16T02:17:40;13.96;80.31
69009;SHT31;56065;52.472;13.380;2023-05-16T02:22:38;13.83;80.07
69009;SHT31;56065;52.472;13.380;2023-05-16T02:25:04;13.76;80.22
69009;SHT31;56065;52.472;13.380;2023-05-16T02:27:30;13.72;80.25
69009;SHT31;56065;52.472;13.380;2023-05-16T02:29:56;13.76;80.02
69009;SHT31;56065;52.472;13.380;2023-05-16T02:32:21;13.82;79.99
69009;SHT31;56065;52.472;13.380;2023-05-16T02:34:47;13.79;79.87
69009;SHT31;56065;52.472;13.380;2023-05-16T02:37:12;13.72;80.20
69009;SHT31;56065;52.472;13.380;2023-05-16T02:39:38;13.79;80.08
69009;SHT31;56065;52.472;13.380;2023-05-16T02:42:04;13.86;80.01
69009;SHT31;56065;52.472;13.380;2023-05-16T02:44:29;13.85;79.80
69009;SHT31;56065;52.472;13.380;2023-05-16T02:46:55;13.83;80.11
69009;SHT31;56065;52.472;13.380;2023-05-16T02:49:20;13.86;79.94
69009;SHT31;56065;52.472;13.380;2023-05-16T02:51:45;13.78;79.93
69009;SHT31;56065;52.472;13.380;2023-05-16T02:54:11;13.83;79.85
69009;SHT31;56065;52.472;13.380;2023-05-16T02:56:36;13.66;80.14
69009;SHT31;56065;52.472;13.380;2023-05-16T02:59:03;13.71;80.02
69009;SHT31;56065;52.472;13.380;2023-05-16T03:01:28;13.75;79.95
69009;SHT31;56065;52.472;13.380;2023-05-16T03:03:54;13.78;80.15
69009;SHT31;56065;52.472;13.380;2023-05-16T03:06:19;13.74;80.33
69009;SHT31;56065;52.472;13.380;2023-05-16T03:08:45;13.71;80.20
69009;SHT31;56065;52.472;13.380;2023-05-16T03:11:11;13.71;80.24
69009;SHT31;56065;52.472;13.380;2023-05-16T03:13:36;13.72;80.34
69009;SHT31;56065;52.472;13.380;2023-05-16T03:16:02;13.81;80.21
69009;SHT31;56065;52.472;13.380;2023-05-16T03:18:27;13.68;80.27
69009;SHT31;56065;52.472;13.380;2023-05-16T03:20:53;13.69;80.18
69009;SHT31;56065;52.472;13.380;2023-05-16T03:23:22;13.68;80.36
69009;SHT31;56065;52.472;13.380;2023-05-16T03:25:47;13.59;80.57
69009;SHT31;56065;52.472;13.380;2023-05-16T03:28:13;13.59;80.43
69009;SHT31;56065;52.472;13.380;2023-05-16T03:30:38;13.55;80.43
69009;SHT31;56065;52.472;13.380;2023-05-16T03:33:04;13.61;80.40
69009;SHT31;56065;52.472;13.380;2023-05-16T03:35:30;13.57;80.48
69009;SHT31;56065;52.472;13.380;2023-05-16T03:37:56;13.54;80.52
69009;SHT31;56065;52.472;13.380;2023-05-16T03:40:22;13.58;80.37
69009;SHT31;56065;52.472;13.380;2023-05-16T03:42:47;13.50;80.50
69009;SHT31;56065;52.472;13.380;2023-05-16T03:45:12;13.50;80.51
69009;SHT31;56065;52.472;13.380;2023-05-16T03:47:38;13.41;80.70
69009;SHT31;56065;52.472;13.380;2023-05-16T03:50:04;13.40;80.71
69009;SHT31;56065;52.472;13.380;2023-05-16T03:52:29;13.45;80.55
69009;SHT31;56065;52.472;13.380;2023-05-16T03:54:55;13.24;81.12
69009;SHT31;56065;52.472;13.380;2023-05-16T03:57:21;13.18;81.20
69009;SHT31;56065;52.472;13.380;2023-05-16T03:59:46;13.28;81.10
69009;SHT31;56065;52.472;13.380;2023-05-16T04:02:12;13.23;81.05
69009;SHT31;56065;52.472;13.380;2023-05-16T04:04:37;13.20;81.11
69009;SHT31;56065;52.472;13.380;2023-05-16T04:07:02;13.21;81.09
69009;SHT31;56065;52.472;13.380;2023-05-16T04:09:28;13.14;81.18
69009;SHT31;56065;52.472;13.380;2023-05-16T04:11:53;13.15;81.29
69009;SHT31;56065;52.472;13.380;2023-05-16T04:14:23;13.23;81.24
69009;SHT31;56065;52.472;13.380;2023-05-16T04:16:48;13.15;81.13
69009;SHT31;56065;52.472;13.380;2023-05-16T04:19:13;13.14;81.21
69009;SHT31;56065;52.472;13.380;2023-05-16T04:21:39;13.06;81.46
69009;SHT31;56065;52.472;13.380;2023-05-16T04:24:05;13.15;81.33
69009;SHT31;56065;52.472;13.380;2023-05-16T04:26:30;13.15;81.21
69009;SHT31;56065;52.472;13.380;2023-05-16T04:28:56;13.17;81.27
69009;SHT31;56065;52.472;13.380;2023-05-16T04:31:24;13.10;81.41
69009;SHT31;56065;52.472;13.380;2023-05-16T04:33:49;13.21;81.25
69009;SHT31;56065;52.472;13.380;2023-05-16T04:36:15;13.23;80.99
69009;SHT31;56065;52.472;13.380;2023-05-16T04:38:40;13.24;81.08
69009;SHT31;56065;52.472;13.380;2023-05-16T04:41:06;13.13;81.10
69009;SHT31;56065;52.472;13.380;2023-05-16T04:43:31;13.10;81.20
69009;SHT31;56065;52.472;13.380;2023-05-16T04:45:56;13.15;81.18
69009;SHT31;56065;52.472;13.380;2023-05-16T04:48:23;13.10;81.13
69009;SHT31;56065;52.472;13.380;2023-05-16T04:50:48;13.07;81.19
69009;SHT31;56065;52.472;13.380;2023-05-16T04:53:13;13.10;81.10
69009;SHT31;56065;52.472;13.380;2023-05-16T04:55:39;13.06;81.30
69009;SHT31;56065;52.472;13.380;2023-05-16T04:58:04;13.13;81.11
69009;SHT31;56065;52.472;13.380;2023-05-16T05:00:30;13.02;81.07
69009;SHT31;56065;52.472;13.380;2023-05-16T05:02:56;13.08;80.83
69009;SHT31;56065;52.472;13.380;2023-05-16T05:05:21;13.08;80.80
69009;SHT31;56065;52.472;13.380;2023-05-16T05:07:46;13.11;80.60
69009;SHT31;56065;52.472;13.380;2023-05-16T05:10:12;13.10;80.71
69009;SHT31;56065;52.472;13.380;2023-05-16T05:12:38;13.07;80.74
69009;SHT31;56065;52.472;13.380;2023-05-16T05:15:04;13.02;80.99
69009;SHT31;56065;52.472;13.380;2023-05-16T05:17:30;13.13;80.71
69009;SHT31;56065;52.472;13.380;2023-05-16T05:19:57;13.17;80.43
69009;SHT31;56065;52.472;13.380;2023-05-16T05:22:22;13.17;80.19
69009;SHT31;56065;52.472;13.380;2023-05-16T05:24:48;13.13;80.18
69009;SHT31;56065;52.472;13.380;2023-05-16T05:27:13;13.07;80.25
69009;SHT31;56065;52.472;13.380;2023-05-16T05:29:39;12.96;80.60
69009;SHT31;56065;52.472;13.380;2023-05-16T05:32:05;12.93;80.66
69009;SHT31;56065;52.472;13.380;2023-05-16T05:34:30;12.93;80.90
69009;SHT31;56065;52.472;13.380;2023-05-16T05:36:55;13.02;81.14
69009;SHT31;56065;52.472;13.380;2023-05-16T05:39:21;13.10;80.55
69009;SHT31;56065;52.472;13.380;2023-05-16T05:41:47;13.18;80.53
69009;SHT31;56065;52.472;13.380;2023-05-16T05:44:12;13.25;80.16
69009;SHT31;56065;52.472;13.380;2023-05-16T05:46:38;13.35;79.96
69009;SHT31;56065;52.472;13.380;2023-05-16T05:49:04;13.43;79.81
69009;SHT31;56065;52.472;13.380;2023-05-16T05:51:30;13.43;79.42
69009;SHT31;56065;52.472;13.380;2023-05-16T05:53:55;13.34;78.92
69009;SHT31;56065;52.472;13.380;2023-05-16T05:56:21;13.48;78.93
69009;SHT31;56065;52.472;13.380;2023-05-16T05:58:49;13.66;78.80
69009;SHT31;56065;52.472;13.380;2023-05-16T06:01:14;13.68;77.45
69009;SHT31;56065;52.472;13.380;2023-05-16T06:03:41;13.86;77.49
69009;SHT31;56065;52.472;13.380;2023-05-16T06:06:07;13.72;76.84
69009;SHT31;56065;52.472;13.380;2023-05-16T06:08:32;13.69;76.63
69009;SHT31;56065;52.472;13.380;2023-05-16T06:10:58;13.71;76.71
69009;SHT31;56065;52.472;13.380;2023-05-16T06:13:24;13.72;76.80
69009;SHT31;56065;52.472;13.380;2023-05-16T06:15:53;13.59;77.19
69009;SHT31;56065;52.472;13.380;2023-05-16T06:18:19;13.66;77.01
69009;SHT31;56065;52.472;13.380;2023-05-16T06:20:45;13.69;77.04
69009;SHT31;56065;52.472;13.380;2023-05-16T06:23:10;13.79;77.16
69009;SHT31;56065;52.472;13.380;2023-05-16T06:25:36;13.86;76.77
69009;SHT31;56065;52.472;13.380;2023-05-16T06:28:01;14.03;76.81
69009;SHT31;56065;52.472;13.380;2023-05-16T06:30:26;14.09;76.24
69009;SHT31;56065;52.472;13.380;2023-05-16T06:32:52;14.17;76.18
69009;SHT31;56065;52.472;13.380;2023-05-16T06:35:17;14.26;75.53
69009;SHT31;56065;52.472;13.380;2023-05-16T06:37:42;14.33;75.21
69009;SHT31;56065;52.472;13.380;2023-05-16T06:40:08;14.33;74.92
69009;SHT31;56065;52.472;13.380;2023-05-16T06:42:33;14.24;74.97
69009;SHT31;56065;52.472;13.380;2023-05-16T06:44:59;14.23;74.90
69009;SHT31;56065;52.472;13.380;2023-05-16T06:47:24;14.29;74.97
69009;SHT31;56065;52.472;13.380;2023-05-16T06:49:50;14.26;74.54
69009;SHT31;56065;52.472;13.380;2023-05-16T06:52:15;14.36;74.90
69009;SHT31;56065;52.472;13.380;2023-05-16T06:54:41;14.47;74.73
69009;SHT31;56065;52.472;13.380;2023-05-16T06:57:06;14.46;74.37
69009;SHT31;56065;52.472;13.380;2023-05-16T06:59:33;14.53;74.30
69009;SHT31;56065;52.472;13.380;2023-05-16T07:01:59;14.26;74.14
69009;SHT31;56065;52.472;13.380;2023-05-16T07:04:25;14.44;74.65
69009;SHT31;56065;52.472;13.380;2023-05-16T07:06:50;14.16;74.40
69009;SHT31;56065;52.472;13.380;2023-05-16T07:09:15;14.17;74.69
69009;SHT31;56065;52.472;13.380;2023-05-16T07:11:41;14.24;74.78
69009;SHT31;56065;52.472;13.380;2023-05-16T07:14:06;14.36;74.92
69009;SHT31;56065;52.472;13.380;2023-05-16T07:16:32;14.56;74.41
69009;SHT31;56065;52.472;13.380;2023-05-16T07:18:57;14.74;74.00
69009;SHT31;56065;52.472;13.380;2023-05-16T07:21:22;14.81;73.91
69009;SHT31;56065;52.472;13.380;2023-05-16T07:23:48;14.84;73.46
69009;SHT31;56065;52.472;13.380;2023-05-16T07:26:13;14.84;73.13
69009;SHT31;56065;52.472;13.380;2023-05-16T07:28:38;14.78;73.33
69009;SHT31;56065;52.472;13.380;2023-05-16T07:31:04;14.87;73.35
69009;SHT31;56065;52.472;13.380;2023-05-16T07:33:30;14.91;73.17
69009;SHT31;56065;52.472;13.380;2023-05-16T07:35:56;14.96;73.08
69009;SHT31;56065;52.472;13.380;2023-05-16T07:38:21;15.08;73.18
69009;SHT31;56065;52.472;13.380;2023-05-16T07:40:46;15.29;72.30
69009;SHT31;56065;52.472;13.380;2023-05-16T07:43:12;15.11;71.85
69009;SHT31;56065;52.472;13.380;2023-05-16T07:45:37;15.26;71.66
69009;SHT31;56065;52.472;13.380;2023-05-16T07:48:03;15.34;71.17
69009;SHT31;56065;52.472;13.380;2023-05-16T07:50:28;15.29;71.12
69009;SHT31;56065;52.472;13.380;2023-05-16T07:52:53;15.32;71.00
69009;SHT31;56065;52.472;13.380;2023-05-16T07:55:19;15.35;71.15
69009;SHT31;56065;52.472;13.380;2023-05-16T07:57:46;15.21;71.04
69009;SHT31;56065;52.472;13.380;2023-05-16T08:00:12;15.09;71.75
69009;SHT31;56065;52.472;13.380;2023-05-16T08:02:38;15.04;71.68
69009;SHT31;56065;52.472;13.380;2023-05-16T08:05:03;15.09;71.65
69009;SHT31;56065;52.472;13.380;2023-05-16T08:07:29;15.24;71.21
69009;SHT31;56065;52.472;13.380;2023-05-16T08:09:55;15.19;70.91
69009;SHT31;56065;52.472;13.380;2023-05-16T08:12:20;15.21;71.19
69009;SHT31;56065;52.472;13.380;2023-05-16T08:14:46;15.08;71.05
69009;SHT31;56065;52.472;13.380;2023-05-16T08:17:11;14.87;71.73
69009;SHT31;56065;52.472;13.380;2023-05-16T08:19:37;14.84;71.72
69009;SHT31;56065;52.472;13.380;2023-05-16T08:22:02;14.77;71.74
69009;SHT31;56065;52.472;13.380;2023-05-16T08:24:27;14.78;71.97
69009;SHT31;56065;52.472;13.380;2023-05-16T08:26:53;14.84;72.03
69009;SHT31;56065;52.472;13.380;2023-05-16T08:29:18;14.98;72.18
69009;SHT31;56065;52.472;13.380;2023-05-16T08:31:43;15.08;71.95
69009;SHT31;56065;52.472;13.380;2023-05-16T08:34:09;14.99;71.58
69009;SHT31;56065;52.472;13.380;2023-05-16T08:36:35;14.98;71.77
69009;SHT31;56065;52.472;13.380;2023-05-16T08:39:01;14.75;71.79
69009;SHT31;56065;52.472;13.380;2023-05-16T08:41:27;14.77;72.05
69009;SHT31;56065;52.472;13.380;2023-05-16T08:43:53;14.88;71.78
69009;SHT31;56065;52.472;13.380;2023-05-16T08:46:21;14.81;71.93
69009;SHT31;56065;52.472;13.380;2023-05-16T08:48:51;14.83;71.82
69009;SHT31;56065;52.472;13.380;2023-05-16T08:51:20;14.87;71.83
69009;SHT31;56065;52.472;13.380;2023-05-16T08:53:53;14.84;71.41
69009;SHT31;56065;52.472;13.380;2023-05-16T08:56:21;14.95;72.04
69009;SHT31;56065;52.472;13.380;2023-05-16T08:58:49;15.09;71.50
69009;SHT31;56065;52.472;13.380;2023-05-16T09:01:16;15.29;70.86
69009;SHT31;56065;52.472;13.380;2023-05-16T09:03:42;15.50;70.98
69009;SHT31;56065;52.472;13.380;2023-05-16T09:06:08;15.50;70.00
69009;SHT31;56065;52.472;13.380;2023-05-16T09:08:33;15.53;70.43
69009;SHT31;56065;52.472;13.380;2023-05-16T09:11:00;15.63;69.47
69009;SHT31;56065;52.472;13.380;2023-05-16T09:13:25;15.67;69.77
69009;SHT31;56065;52.472;13.380;2023-05-16T09:16:07;15.60;69.17
69009;SHT31;56065;52.472;13.380;2023-05-16T09:18:33;15.69;69.58
69009;SHT31;56065;52.472;13.380;2023-05-16T09:20:59;15.66;69.20
69009;SHT31;56065;52.472;13.380;2023-05-16T09:23:24;15.46;69.36
69009;SHT31;56065;52.472;13.380;2023-05-16T09:25:52;15.43;69.56
69009;SHT31;56065;52.472;13.380;2023-05-16T09:28:17;15.39;70.20
69009;SHT31;56065;52.472;13.380;2023-05-16T09:30:45;15.45;69.76
69009;SHT31;56065;52.472;13.380;2023-05-16T09:33:11;15.38;70.03
69009;SHT31;56065;52.472;13.380;2023-05-16T09:35:37;15.19;69.90
69009;SHT31;56065;52.472;13.380;2023-05-16T09:38:02;15.26;69.84
69009;SHT31;56065;52.472;13.380;2023-05-16T09:40:28;15.19;70.21
69009;SHT31;56065;52.472;13.380;2023-05-16T09:43:03;15.11;69.92
69009;SHT31;56065;52.472;13.380;2023-05-16T09:45:30;14.98;69.90
69009;SHT31;56065;52.472;13.380;2023-05-16T09:48:10;15.09;69.95
69009;SHT31;56065;52.472;13.380;2023-05-16T09:50:39;15.16;69.75
69009;SHT31;56065;52.472;13.380;2023-05-16T09:53:06;15.21;69.77
69009;SHT31;56065;52.472;13.380;2023-05-16T09:55:32;15.18;69.56
69009;SHT31;56065;52.472;13.380;2023-05-16T09:57:57;15.24;69.52
69009;SHT31;56065;52.472;13.380;2023-05-16T10:00:31;15.19;69.97
69009;SHT31;56065;52.472;13.380;2023-05-16T10:02:58;15.24;69.69
69009;SHT31;56065;52.472;13.380;2023-05-16T10:05:27;15.38;69.99
69009;SHT31;56065;52.472;13.380;2023-05-16T10:07:55;15.49;69.35
69009;SHT31;56065;52.472;13.380;2023-05-16T10:10:21;15.47;69.05
69009;SHT31;56065;52.472;13.380;2023-05-16T10:12:47;15.38;69.29
69009;SHT31;56065;52.472;13.380;2023-05-16T10:15:13;15.39;69.20
69009;SHT31;56065;52.472;13.380;2023-05-16T10:17:39;15.36;69.84
69009;SHT31;56065;52.472;13.380;2023-05-16T10:20:06;15.24;69.55
69009;SHT31;56065;52.472;13.380;2023-05-16T10:22:35;15.12;69.61
69009;SHT31;56065;52.472;13.380;2023-05-16T10:25:08;15.11;69.96
69009;SHT31;56065;52.472;13.380;2023-05-16T10:27:37;15.15;70.06
69009;SHT31;56065;52.472;13.380;2023-05-16T10:30:05;15.05;70.27
69009;SHT31;56065;52.472;13.380;2023-05-16T10:32:31;15.26;70.45
69009;SHT31;56065;52.472;13.380;2023-05-16T10:34:57;15.62;69.56
69009;SHT31;56065;52.472;13.380;2023-05-16T10:37:28;16.14;68.76
69009;SHT31;56065;52.472;13.380;2023-05-16T10:39:54;16.56;67.41
69009;SHT31;56065;52.472;13.380;2023-05-16T10:42:20;16.92;67.31
69009;SHT31;56065;52.472;13.380;2023-05-16T10:44:45;16.83;66.30
69009;SHT31;56065;52.472;13.380;2023-05-16T10:47:11;16.68;66.64
69009;SHT31;56065;52.472;13.380;2023-05-16T10:49:39;16.38;66.63
69009;SHT31;56065;52.472;13.380;2023-05-16T10:52:10;16.10;67.28
69009;SHT31;56065;52.472;13.380;2023-05-16T10:54:41;16.00;67.89
69009;SHT31;56065;52.472;13.380;2023-05-16T10:57:11;15.87;68.05
69009;SHT31;56065;52.472;13.380;2023-05-16T10:59:44;15.65;68.83
69009;SHT31;56065;52.472;13.380;2023-05-16T11:02:30;15.45;69.25
69009;SHT31;56065;52.472;13.380;2023-05-16T11:05:01;15.34;69.77
69009;SHT31;56065;52.472;13.380;2023-05-16T11:07:34;15.26;69.70
69009;SHT31;56065;52.472;13.380;2023-05-16T11:10:09;15.42;69.37
69009;SHT31;56065;52.472;13.380;2023-05-16T11:12:47;15.74;68.63
69009;SHT31;56065;52.472;13.380;2023-05-16T11:15:26;16.14;67.47
69009;SHT31;56065;52.472;13.380;2023-05-16T11:18:14;16.51;66.47
69009;SHT31;56065;52.472;13.380;2023-05-16T11:20:40;16.85;66.55
69009;SHT31;56065;52.472;13.380;2023-05-16T11:25:51;16.73;64.14
69009;SHT31;56065;52.472;13.380;2023-05-16T11:28:18;16.64;64.72
69009;SHT31;56065;52.472;13.380;2023-05-16T11:30:46;16.55;63.97
69009;SHT31;56065;52.472;13.380;2023-05-16T11:33:11;16.34;63.85
69009;SHT31;56065;52.472;13.380;2023-05-16T11:35:37;16.35;63.97
69009;SHT31;56065;52.472;13.380;2023-05-16T11:38:03;16.21;64.07
69009;SHT31;56065;52.472;13.380;2023-05-16T11:40:28;16.18;64.69
69009;SHT31;56065;52.472;13.380;2023-05-16T11:42:59;16.22;64.52
69009;SHT31;56065;52.472;13.380;2023-05-16T11:45:24;16.14;64.55
69009;SHT31;56065;52.472;13.380;2023-05-16T11:47:50;16.08;64.23
69009;SHT31;56065;52.472;13.380;2023-05-16T11:50:20;16.35;64.65
69009;SHT31;56065;52.472;13.380;2023-05-16T11:52:49;16.73;63.41
69009;SHT31;56065;52.472;13.380;2023-05-16T11:55:19;17.48;63.13
69009;SHT31;56065;52.472;13.380;2023-05-16T11:57:46;19.63;60.33
69009;SHT31;56065;52.472;13.380;2023-05-16T12:00:20;20.67;54.96
69009;SHT31;56065;52.472;13.380;2023-05-16T12:02:47;20.91;53.17
69009;SHT31;56065;52.472;13.380;2023-05-16T12:05:13;20.79;53.51
69009;SHT31;56065;52.472;13.380;2023-05-16T12:07:39;20.63;53.79
69009;SHT31;56065;52.472;13.380;2023-05-16T12:10:06;20.26;53.73
69009;SHT31;56065;52.472;13.380;2023-05-16T12:12:33;20.24;54.06
69009;SHT31;56065;52.472;13.380;2023-05-16T12:14:59;20.10;54.52
69009;SHT31;56065;52.472;13.380;2023-05-16T12:17:25;19.73;54.81
69009;SHT31;56065;52.472;13.380;2023-05-16T12:19:51;19.67;55.97
69009;SHT31;56065;52.472;13.380;2023-05-16T12:22:18;19.70;55.78
69009;SHT31;56065;52.472;13.380;2023-05-16T12:24:44;19.54;55.49
69009;SHT31;56065;52.472;13.380;2023-05-16T12:27:09;19.44;55.89
69009;SHT31;56065;52.472;13.380;2023-05-16T12:29:35;19.31;56.55
69009;SHT31;56065;52.472;13.380;2023-05-16T12:32:00;19.17;56.55
69009;SHT31;56065;52.472;13.380;2023-05-16T12:34:28;18.86;57.38
69009;SHT31;56065;52.472;13.380;2023-05-16T12:36:54;18.84;58.45
69009;SHT31;56065;52.472;13.380;2023-05-16T12:39:19;18.50;57.39
69009;SHT31;56065;52.472;13.380;2023-05-16T12:41:45;18.42;57.91
69009;SHT31;56065;52.472;13.380;2023-05-16T12:44:17;18.09;57.26
69009;SHT31;56065;52.472;13.380;2023-05-16T12:46:50;18.13;58.69
69009;SHT31;56065;52.472;13.380;2023-05-16T12:49:22;18.01;58.08
69009;SHT31;56065;52.472;13.380;2023-05-16T12:51:51;17.95;58.28
69009;SHT31;56065;52.472;13.380;2023-05-16T12:54:18;18.24;57.56
69009;SHT31;56065;52.472;13.380;2023-05-16T12:56:43;19.29;57.85
69009;SHT31;56065;52.472;13.380;2023-05-16T12:59:09;20.65;54.74
69009;SHT31;56065;52.472;13.380;2023-05-16T13:01:36;22.01;51.82
69009;SHT31;56065;52.472;13.380;2023-05-16T13:04:02;23.00;48.91
69009;SHT31;56065;52.472;13.380;2023-05-16T13:06:28;23.72;48.06
69009;SHT31;56065;52.472;13.380;2023-05-16T13:08:53;23.84;47.22
69009;SHT31;56065;52.472;13.380;2023-05-16T13:11:19;23.86;47.26
69009;SHT31;56065;52.472;13.380;2023-05-16T13:13:45;23.55;47.09
69009;SHT31;56065;52.472;13.380;2023-05-16T13:16:10;24.04;46.67
69009;SHT31;56065;52.472;13.380;2023-05-16T13:18:36;24.04;46.16
69009;SHT31;56065;52.472;13.380;2023-05-16T13:21:01;23.41;46.77
69009;SHT31;56065;52.472;13.380;2023-05-16T13:23:28;22.93;47.04
69009;SHT31;56065;52.472;13.380;2023-05-16T13:25:54;22.57;47.85
69009;SHT31;56065;52.472;13.380;2023-05-16T13:28:19;22.21;47.16
69009;SHT31;56065;52.472;13.380;2023-05-16T13:30:45;21.90;47.98
69009;SHT31;56065;52.472;13.380;2023-05-16T13:33:11;21.81;48.75
69009;SHT31;56065;52.472;13.380;2023-05-16T13:35:36;21.90;48.79
69009;SHT31;56065;52.472;13.380;2023-05-16T13:38:02;22.39;48.98
69009;SHT31;56065;52.472;13.380;2023-05-16T13:40:28;23.11;46.41
69009;SHT31;56065;52.472;13.380;2023-05-16T13:42:53;23.74;45.47
69009;SHT31;56065;52.472;13.380;2023-05-16T13:45:19;23.37;46.28
69009;SHT31;56065;52.472;13.380;2023-05-16T13:47:44;22.80;46.36
69009;SHT31;56065;52.472;13.380;2023-05-16T13:50:09;22.42;47.09
69009;SHT31;56065;52.472;13.380;2023-05-16T13:52:36;21.67;47.35
69009;SHT31;56065;52.472;13.380;2023-05-16T13:55:02;21.22;46.84
69009;SHT31;56065;52.472;13.380;2023-05-16T13:57:28;20.96;47.52
69009;SHT31;56065;52.472;13.380;2023-05-16T13:59:54;21.02;48.69
69009;SHT31;56065;52.472;13.380;2023-05-16T14:02:19;21.09;51.62
69009;SHT31;56065;52.472;13.380;2023-05-16T14:04:45;21.84;49.13
69009;SHT31;56065;52.472;13.380;2023-05-16T14:07:10;22.49;49.29
69009;SHT31;56065;52.472;13.380;2023-05-16T14:09:36;22.45;45.74
69009;SHT31;56065;52.472;13.380;2023-05-16T14:12:05;22.19;45.77
69009;SHT31;56065;52.472;13.380;2023-05-16T14:14:32;21.78;47.12
69009;SHT31;56065;52.472;13.380;2023-05-16T14:16:58;22.41;46.01
69009;SHT31;56065;52.472;13.380;2023-05-16T14:19:23;22.62;45.05
69009;SHT31;56065;52.472;13.380;2023-05-16T14:21:49;22.31;45.12
69009;SHT31;56065;52.472;13.380;2023-05-16T14:24:14;21.49;48.06
69009;SHT31;56065;52.472;13.380;2023-05-16T14:26:40;21.39;47.09
69009;SHT31;56065;52.472;13.380;2023-05-16T14:29:05;21.39;48.48
69009;SHT31;56065;52.472;13.380;2023-05-16T14:31:31;21.54;46.40
69009;SHT31;56065;52.472;13.380;2023-05-16T14:33:57;21.27;45.37
69009;SHT31;56065;52.472;13.380;2023-05-16T14:36:23;21.30;45.36
69009;SHT31;56065;52.472;13.380;2023-05-16T14:38:49;21.60;44.64
69009;SHT31;56065;52.472;13.380;2023-05-16T14:41:14;21.66;43.93
69009;SHT31;56065;52.472;13.380;2023-05-16T14:43:40;22.49;44.24
69009;SHT31;56065;52.472;13.380;2023-05-16T14:46:05;22.65;43.86
69009;SHT31;56065;52.472;13.380;2023-05-16T14:48:30;22.36;43.94
69009;SHT31;56065;52.472;13.380;2023-05-16T14:50:57;21.56;43.08
69009;SHT31;56065;52.472;13.380;2023-05-16T14:53:22;20.91;43.59
69009;SHT31;56065;52.472;13.380;2023-05-16T14:55:48;20.85;46.09
69009;SHT31;56065;52.472;13.380;2023-05-16T14:58:14;20.67;44.63
69009;SHT31;56065;52.472;13.380;2023-05-16T15:00:39;20.76;45.58
69009;SHT31;56065;52.472;13.380;2023-05-16T15:03:05;21.10;43.70
69009;SHT31;56065;52.472;13.380;2023-05-16T15:05:30;21.63;43.46
69009;SHT31;56065;52.472;13.380;2023-05-16T15:07:56;21.67;42.96
69009;SHT31;56065;52.472;13.380;2023-05-16T15:10:21;21.50;42.84
69009;SHT31;56065;52.472;13.380;2023-05-16T15:12:47;21.77;43.65
69009;SHT31;56065;52.472;13.380;2023-05-16T15:15:12;21.85;42.71
69009;SHT31;56065;52.472;13.380;2023-05-16T15:17:38;21.63;41.19
69009;SHT31;56065;52.472;13.380;2023-05-16T15:20:06;21.83;42.18
69009;SHT31;56065;52.472;13.380;2023-05-16T15:22:32;21.85;40.70
69009;SHT31;56065;52.472;13.380;2023-05-16T15:24:57;22.14;40.92